createdAt,value
2022-09-28T00:00:02.008Z,2.03
2022-09-28T00:01:45.973Z,5.22
2022-09-28T00:03:19.323Z,3.92
2022-09-28T00:04:52.580Z,4.90
2022-09-28T00:06:27.967Z,8.05
2022-09-28T00:08:01.485Z,7.15
2022-09-28T00:09:34.717Z,3.22
2022-09-28T00:11:13.880Z,10.55
2022-09-28T00:12:47.542Z,4.88
2022-09-28T00:14:21.491Z,7.00
2022-09-28T00:16:04.969Z,3.88
2022-09-28T00:17:38.352Z,8.20
2022-09-28T00:19:12.943Z,5.85
2022-09-28T00:20:45.252Z,4.85
2022-09-28T00:22:18.403Z,3.17
2022-09-28T00:24:11.388Z,4.35
2022-09-28T00:25:45.015Z,4.80
2022-09-28T00:27:22.182Z,8.18
2022-09-28T00:28:55.216Z,1.95
2022-09-28T00:30:28.518Z,5.90
2022-09-28T00:32:05.562Z,6.53
2022-09-28T00:33:40.692Z,5.35
2022-09-28T00:35:14.537Z,5.35
2022-09-28T00:36:48.166Z,7.20
2022-09-28T00:38:21.664Z,3.63
2022-09-28T00:39:54.915Z,9.25
2022-09-28T00:41:28.488Z,5.43
2022-09-28T00:43:21.563Z,2.42
2022-09-28T00:44:56.064Z,6.15
2022-09-28T00:46:33.809Z,5.80
2022-09-28T00:48:07.062Z,3.17
2022-09-28T00:49:44.090Z,2.08
2022-09-28T00:51:17.938Z,4.70
2022-09-28T00:52:55.783Z,8.02
2022-09-28T00:54:28.279Z,5.88
2022-09-28T00:56:07.517Z,3.50
2022-09-28T00:57:45.024Z,6.05
2022-09-28T00:59:18.802Z,4.07
2022-09-28T01:00:52.118Z,2.15
2022-09-28T01:02:24.661Z,5.65
2022-09-28T01:04:01.573Z,2.28
2022-09-28T01:05:36.398Z,4.85
2022-09-28T01:07:11.483Z,4.97
2022-09-28T01:08:46.786Z,1.67
2022-09-28T01:10:20.982Z,1.88
2022-09-28T01:11:55.298Z,2.72
2022-09-28T01:13:29.595Z,2.60
2022-09-28T01:15:05.612Z,10.30
2022-09-28T01:16:46.085Z,25.83
2022-09-28T01:18:52.324Z,35.50
2022-09-28T01:20:34.743Z,12.05
2022-09-28T01:22:24.968Z,20.45
2022-09-28T01:24:14.652Z,12.10
2022-09-28T01:25:53.999Z,10.35
2022-09-28T01:27:32.753Z,24.40
2022-09-28T01:29:13.311Z,19.05
2022-09-28T01:30:52.348Z,16.48
2022-09-28T01:32:36.922Z,24.73
2022-09-28T01:34:14.253Z,63.55
2022-09-28T01:35:55.117Z,62.33
2022-09-28T01:37:37.400Z,57.00
2022-09-28T01:39:13.695Z,98.57
2022-09-28T01:40:48.547Z,61.53
2022-09-28T01:42:25.319Z,26.33
2022-09-28T01:44:03.479Z,20.75
2022-09-28T01:45:42.683Z,37.33
2022-09-28T01:47:22.466Z,26.45
2022-09-28T01:48:58.671Z,23.05
2022-09-28T01:50:38.121Z,33.40
2022-09-28T01:52:16.220Z,23.38
2022-09-28T01:53:54.711Z,22.15
2022-09-28T01:55:35.294Z,30.48
2022-09-28T01:57:16.704Z,15.75
2022-09-28T01:58:54.472Z,18.13
2022-09-28T02:00:29.693Z,34.20
2022-09-28T02:02:08.404Z,34.67
2022-09-28T02:03:48.220Z,27.30
2022-09-28T02:05:25.854Z,35.85
2022-09-28T02:07:07.601Z,36.50
2022-09-28T02:08:47.096Z,16.70
2022-09-28T02:10:26.327Z,43.53
2022-09-28T02:12:04.489Z,36.55
2022-09-28T02:13:41.892Z,23.40
2022-09-28T02:15:20.221Z,33.75
2022-09-28T02:16:57.553Z,26.95
2022-09-28T02:18:34.521Z,35.30
2022-09-28T02:20:09.163Z,75.65
2022-09-28T02:21:45.442Z,29.95
2022-09-28T02:23:23.217Z,63.67
2022-09-28T02:25:00.433Z,54.97
2022-09-28T02:26:40.544Z,110.53
2022-09-28T02:28:14.706Z,90.13
2022-09-28T02:29:47.998Z,95.95
2022-09-28T02:31:21.564Z,79.13
2022-09-28T02:33:01.814Z,44.88
2022-09-28T02:34:36.909Z,53.97
2022-09-28T02:36:11.109Z,44.47
2022-09-28T02:37:45.565Z,44.88
2022-09-28T02:39:19.202Z,52.97
2022-09-28T02:41:03.916Z,58.67
2022-09-28T02:42:47.641Z,26.27
2022-09-28T02:44:41.239Z,40.55
2022-09-28T02:46:28.719Z,59.60
2022-09-28T02:48:35.889Z,26.60
2022-09-28T02:50:23.009Z,30.33
2022-09-28T02:52:26.230Z,52.88
2022-09-28T02:54:21.633Z,92.90
2022-09-28T02:56:11.480Z,61.85
2022-09-28T02:57:57.972Z,296.55
2022-09-28T02:59:45.594Z,53.25
2022-09-28T03:01:28.576Z,91.50
2022-09-28T03:03:14.513Z,79.55
2022-09-28T03:04:57.822Z,74.55
2022-09-28T03:06:42.252Z,44.90
2022-09-28T03:08:23.823Z,37.83
2022-09-28T03:10:04.294Z,48.13
2022-09-28T03:11:43.079Z,29.85
2022-09-28T03:13:16.944Z,27.38
2022-09-28T03:15:06.627Z,33.42
2022-09-28T03:16:45.118Z,41.60
2022-09-28T03:18:20.174Z,34.92
2022-09-28T03:19:52.743Z,25.75
2022-09-28T03:21:26.141Z,19.38
2022-09-28T03:23:23.208Z,32.63
2022-09-28T03:24:51.999Z,18.42
2022-09-28T03:26:24.279Z,19.52
2022-09-28T03:27:57.550Z,22.33
2022-09-28T03:29:33.164Z,46.85
2022-09-28T03:31:10.689Z,95.78
2022-09-28T03:32:44.138Z,38.47
2022-09-28T03:34:19.222Z,37.35
2022-09-28T03:35:53.417Z,57.67
2022-09-28T03:37:27.782Z,60.70
2022-09-28T03:39:01.132Z,73.38
2022-09-28T03:40:34.641Z,76.05
2022-09-28T03:42:08.082Z,43.13
2022-09-28T03:43:47.986Z,58.53
2022-09-28T03:45:21.470Z,83.82
2022-09-28T03:46:57.234Z,103.75
2022-09-28T03:48:33.355Z,75.57
2022-09-28T03:50:08.837Z,77.07
2022-09-28T03:51:42.099Z,80.25
2022-09-28T03:53:14.599Z,66.28
2022-09-28T03:54:49.331Z,130.27
2022-09-28T03:56:23.088Z,95.93
2022-09-28T03:57:55.876Z,104.28
2022-09-28T03:59:29.243Z,109.05
2022-09-28T04:01:04.687Z,103.60
2022-09-28T04:02:38.057Z,92.18
2022-09-28T04:04:13.190Z,92.13
2022-09-28T04:05:55.000Z,81.35
2022-09-28T04:07:31.268Z,123.00
2022-09-28T04:09:05.543Z,123.28
2022-09-28T04:10:38.807Z,81.47
2022-09-28T04:12:13.398Z,84.40
2022-09-28T04:13:49.642Z,133.68
2022-09-28T04:15:23.414Z,138.57
2022-09-28T04:16:55.756Z,121.85
2022-09-28T04:18:31.642Z,79.38
2022-09-28T04:20:33.282Z,72.25
2022-09-28T04:22:11.410Z,52.25
2022-09-28T04:23:45.418Z,45.90
2022-09-28T04:25:18.943Z,47.10
2022-09-28T04:26:52.444Z,65.95
2022-09-28T04:28:44.290Z,106.65
2022-09-28T04:30:17.116Z,70.45
2022-09-28T04:31:53.233Z,71.05
2022-09-28T04:33:29.989Z,51.15
2022-09-28T04:35:03.163Z,95.55
2022-09-28T04:36:36.614Z,43.80
2022-09-28T04:38:11.304Z,83.60
2022-09-28T04:39:48.227Z,80.25
2022-09-28T04:41:23.976Z,49.45
2022-09-28T04:42:57.638Z,35.33
2022-09-28T04:44:31.797Z,95.15
2022-09-28T04:46:11.902Z,146.20
2022-09-28T04:47:52.559Z,131.20
2022-09-28T04:49:49.283Z,132.07
2022-09-28T04:51:42.752Z,139.98
2022-09-28T04:53:17.419Z,119.88
2022-09-28T04:54:51.164Z,46.42
2022-09-28T04:56:25.561Z,140.65
2022-09-28T04:58:02.793Z,115.50
2022-09-28T04:59:36.279Z,126.15
2022-09-28T05:01:13.194Z,144.25
2022-09-28T05:03:01.755Z,56.80
2022-09-28T05:05:01.310Z,61.00
2022-09-28T05:07:03.569Z,34.65
2022-09-28T05:08:38.592Z,108.30
2022-09-28T05:10:11.842Z,140.13
2022-09-28T05:11:45.760Z,93.03
2022-09-28T05:13:23.692Z,129.63
2022-09-28T05:14:57.741Z,58.03
2022-09-28T05:16:33.810Z,23.40
2022-09-28T05:18:25.780Z,30.88
2022-09-28T05:20:09.309Z,40.00
2022-09-28T05:21:46.920Z,74.13
2022-09-28T05:23:20.702Z,45.05
2022-09-28T05:24:56.068Z,43.30
2022-09-28T05:26:31.391Z,53.65
2022-09-28T05:28:05.828Z,49.40
2022-09-28T05:29:57.969Z,56.72
2022-09-28T05:31:37.154Z,14.32
2022-09-28T05:33:18.254Z,41.45
2022-09-28T05:35:02.102Z,45.30
2022-09-28T05:36:45.886Z,61.45
2022-09-28T05:38:19.269Z,159.07
2022-09-28T05:39:52.563Z,74.90
2022-09-28T05:41:27.377Z,65.05
2022-09-28T05:43:02.049Z,34.95
2022-09-28T05:44:35.622Z,27.20
2022-09-28T05:46:11.940Z,18.48
2022-09-28T05:47:48.066Z,46.25
2022-09-28T05:49:25.058Z,24.30
2022-09-28T05:50:58.736Z,37.63
2022-09-28T05:52:32.366Z,8.10
2022-09-28T05:54:06.464Z,12.15
2022-09-28T05:55:42.626Z,20.50
2022-09-28T05:57:17.427Z,14.38
2022-09-28T05:58:50.579Z,47.72
2022-09-28T06:00:26.351Z,22.55
2022-09-28T06:02:03.103Z,9.82
2022-09-28T06:03:36.589Z,3.92
2022-09-28T06:05:11.112Z,4.88
2022-09-28T06:06:44.584Z,14.90
2022-09-28T06:08:17.959Z,12.95
2022-09-28T06:09:54.817Z,3.42
2022-09-28T06:11:44.940Z,10.05
2022-09-28T06:13:32.434Z,5.40
2022-09-28T06:15:06.500Z,4.15
2022-09-28T06:16:43.704Z,6.22
2022-09-28T06:18:17.736Z,6.93
2022-09-28T06:20:31.935Z,8.27
2022-09-28T06:22:17.743Z,4.72
2022-09-28T06:23:58.162Z,3.05
2022-09-28T06:25:31.871Z,3.08
2022-09-28T06:27:05.411Z,3.15
2022-09-28T06:28:40.155Z,2.08
2022-09-28T06:30:13.942Z,2.30
2022-09-28T06:31:47.494Z,6.50
2022-09-28T06:33:22.061Z,5.03
2022-09-28T06:34:56.505Z,3.22
2022-09-28T06:36:32.214Z,7.47
2022-09-28T06:38:05.959Z,6.03
2022-09-28T06:39:39.725Z,6.30
2022-09-28T06:41:13.363Z,6.30
2022-09-28T06:42:57.341Z,8.38
2022-09-28T06:44:52.415Z,6.53
2022-09-28T06:46:38.197Z,7.80
2022-09-28T06:48:40.949Z,6.57
2022-09-28T06:50:18.095Z,6.43
2022-09-28T06:52:12.776Z,8.25
2022-09-28T06:54:09.883Z,8.93
2022-09-28T06:55:49.323Z,9.45
2022-09-28T06:57:23.765Z,10.35
2022-09-28T06:58:57.219Z,8.57
2022-09-28T07:00:34.191Z,10.38
2022-09-28T07:02:08.134Z,13.10
2022-09-28T07:04:04.624Z,13.32
2022-09-28T07:06:01.454Z,12.05
2022-09-28T07:07:48.847Z,12.45
2022-09-28T07:09:50.326Z,11.02
2022-09-28T07:11:29.147Z,11.43
2022-09-28T07:13:49.172Z,26.40
2022-09-28T07:15:20.761Z,24.70
2022-09-28T07:17:12.696Z,30.55
2022-09-28T07:18:47.813Z,22.45
2022-09-28T07:20:21.091Z,22.58
2022-09-28T07:22:04.452Z,21.25
2022-09-28T07:23:49.223Z,26.70
2022-09-28T07:25:32.536Z,21.95
2022-09-28T07:27:14.317Z,21.67
2022-09-28T07:29:18.242Z,21.15
2022-09-28T07:31:10.626Z,14.55
2022-09-28T07:33:10.752Z,14.27
2022-09-28T07:34:59.137Z,10.02
2022-09-28T07:36:43.788Z,10.38
2022-09-28T07:38:17.240Z,9.23
2022-09-28T07:40:07.724Z,11.38
2022-09-28T07:41:44.391Z,14.02
2022-09-28T07:43:20.718Z,8.73
2022-09-28T07:44:56.908Z,7.07
2022-09-28T07:46:31.147Z,8.57
2022-09-28T07:50:08.692Z,5.93
2022-09-28T07:51:54.320Z,7.45
2022-09-28T07:53:43.504Z,7.85
2022-09-28T07:55:26.061Z,7.15
2022-09-28T07:57:15.386Z,9.15
2022-09-28T07:59:07.240Z,7.30
2022-09-28T08:00:48.249Z,16.15
2022-09-28T08:02:22.908Z,5.75
2022-09-28T08:03:57.571Z,6.15
2022-09-28T08:05:32.436Z,9.05
2022-09-28T08:07:10.545Z,10.43
2022-09-28T08:08:45.024Z,4.22
2022-09-28T08:10:22.352Z,8.30
2022-09-28T08:12:15.659Z,7.38
2022-09-28T08:13:49.245Z,5.82
2022-09-28T08:15:42.708Z,11.43
2022-09-28T08:17:36.594Z,4.75
2022-09-28T08:19:14.815Z,6.93
2022-09-28T08:21:05.826Z,5.13
2022-09-28T08:22:38.928Z,6.40
2022-09-28T08:24:12.479Z,7.78
2022-09-28T08:25:49.076Z,3.40
2022-09-28T08:27:22.590Z,3.92
2022-09-28T08:28:56.052Z,3.08
2022-09-28T08:31:01.311Z,3.00
2022-09-28T08:32:37.658Z,5.68
2022-09-28T08:34:47.836Z,5.80
2022-09-28T08:36:35.955Z,7.30
2022-09-28T08:38:12.117Z,6.47
2022-09-28T08:40:04.322Z,4.68
2022-09-28T08:42:08.906Z,8.68
2022-09-28T08:44:14.998Z,5.97
2022-09-28T08:46:20.136Z,5.47
2022-09-28T08:48:51.823Z,8.05
2022-09-28T08:51:00.242Z,5.10
2022-09-28T08:52:52.680Z,2.53
2022-09-28T08:54:53.156Z,6.43
2022-09-28T08:56:42.003Z,5.00
2022-09-28T08:58:21.717Z,4.22
2022-09-28T08:59:57.334Z,6.00
2022-09-28T09:01:41.763Z,8.05
2022-09-28T09:03:22.738Z,4.25
2022-09-28T09:05:14.989Z,3.75
2022-09-28T09:07:22.625Z,5.15
2022-09-28T09:09:23.945Z,5.35
2022-09-28T09:11:03.579Z,5.00
2022-09-28T09:12:48.237Z,6.10
2022-09-28T09:14:44.626Z,3.88
2022-09-28T09:16:32.573Z,4.15
2022-09-28T09:18:37.644Z,5.05
2022-09-28T09:20:39.884Z,5.00
2022-09-28T09:22:36.895Z,4.28
2022-09-28T09:24:27.372Z,8.65
2022-09-28T09:26:10.191Z,1.55
2022-09-28T09:27:59.241Z,5.75
2022-09-28T09:29:55.792Z,2.55
2022-09-28T09:31:43.218Z,8.85
2022-09-28T09:33:47.944Z,5.72
2022-09-28T09:36:01.177Z,6.32
2022-09-28T09:38:17.111Z,11.05
2022-09-28T09:40:17.189Z,3.40
2022-09-28T09:42:41.264Z,5.18
2022-09-28T09:45:03.952Z,6.38
2022-09-28T09:47:09.421Z,8.52
2022-09-28T09:48:56.441Z,6.25
2022-09-28T09:50:35.380Z,5.90
2022-09-28T09:52:16.503Z,4.45
2022-09-28T09:53:59.792Z,7.70
2022-09-28T09:55:37.918Z,6.32
2022-09-28T09:57:51.909Z,5.35
2022-09-28T09:59:41.117Z,3.60
2022-09-28T10:01:31.543Z,2.70
2022-09-28T10:03:36.233Z,4.75
2022-09-28T10:05:23.416Z,7.85
2022-09-28T10:07:02.809Z,2.80
2022-09-28T10:08:43.032Z,4.30
2022-09-28T10:10:23.002Z,3.97
2022-09-28T10:11:59.504Z,2.67
2022-09-28T10:13:33.495Z,4.68
2022-09-28T10:15:16.318Z,2.63
2022-09-28T10:17:08.084Z,5.82
2022-09-28T10:19:00.562Z,4.30
2022-09-28T10:20:52.230Z,6.25
2022-09-28T10:23:04.241Z,3.90
2022-09-28T10:24:41.879Z,3.20
2022-09-28T10:26:25.125Z,3.63
2022-09-28T10:28:01.143Z,8.35
2022-09-28T10:29:44.441Z,6.13
2022-09-28T10:31:40.357Z,3.15
2022-09-28T10:33:32.866Z,3.63
2022-09-28T10:35:23.761Z,3.05
2022-09-28T10:37:07.502Z,3.15
2022-09-28T10:38:57.963Z,5.50
2022-09-28T10:40:43.781Z,1.63
2022-09-28T10:42:24.465Z,3.35
2022-09-28T10:44:07.263Z,1.45
2022-09-28T10:45:47.579Z,2.42
2022-09-28T10:47:23.440Z,3.55
2022-09-28T10:49:00.748Z,2.50
2022-09-28T10:50:36.908Z,4.93
2022-09-28T10:52:31.964Z,2.80
2022-09-28T10:54:05.600Z,6.78
2022-09-28T10:55:59.746Z,3.65
2022-09-28T10:57:37.897Z,3.10
2022-09-28T10:59:39.239Z,1.95
2022-09-28T11:01:35.634Z,4.45
2022-09-28T11:03:20.711Z,4.15
2022-09-28T11:04:56.741Z,3.25
2022-09-28T11:06:33.035Z,4.20
2022-09-28T11:08:08.862Z,2.53
2022-09-28T11:09:54.839Z,1.42
2022-09-28T11:11:29.628Z,2.40
2022-09-28T11:13:11.960Z,1.85
2022-09-28T11:14:52.955Z,3.13
2022-09-28T11:16:29.433Z,1.02
2022-09-28T11:18:25.475Z,3.40
2022-09-28T11:20:01.384Z,3.92
2022-09-28T11:21:44.076Z,3.70
2022-09-28T11:23:21.695Z,4.57
2022-09-28T11:25:30.348Z,2.92
2022-09-28T11:27:04.081Z,4.45
2022-09-28T11:28:43.088Z,5.05
2022-09-28T11:30:26.873Z,4.35
2022-09-28T11:32:44.936Z,3.10
2022-09-28T11:34:58.128Z,2.65
2022-09-28T11:36:47.466Z,3.92
2022-09-28T11:38:33.689Z,2.60
2022-09-28T11:40:35.948Z,4.75
2022-09-28T11:42:23.542Z,5.03
2022-09-28T11:44:29.464Z,2.50
2022-09-28T11:46:24.200Z,3.05
2022-09-28T11:48:03.114Z,2.58
2022-09-28T11:49:44.545Z,1.30
2022-09-28T11:51:22.461Z,6.47
2022-09-28T11:53:03.642Z,4.15
2022-09-28T11:54:44.077Z,3.42
2022-09-28T11:56:33.263Z,1.98
2022-09-28T11:58:14.437Z,5.28
2022-09-28T11:59:57.791Z,3.00
2022-09-28T12:01:38.279Z,2.72
2022-09-28T12:03:37.341Z,3.08
2022-09-28T12:05:20.973Z,2.42
2022-09-28T12:07:01.312Z,2.75
2022-09-28T12:08:41.434Z,3.13
2022-09-28T12:10:44.683Z,1.17
2022-09-28T12:12:25.692Z,2.85
2022-09-28T12:14:06.816Z,2.90
2022-09-28T12:16:17.178Z,3.80
2022-09-28T12:17:46.976Z,3.88
2022-09-28T12:19:24.994Z,3.65
2022-09-28T12:21:10.562Z,1.10
2022-09-28T12:22:49.809Z,3.28
2022-09-28T12:24:28.311Z,3.95
2022-09-28T12:26:05.161Z,0.85
2022-09-28T12:27:43.358Z,2.83
2022-09-28T12:29:21.391Z,1.48
2022-09-28T12:30:58.604Z,2.20
2022-09-28T12:32:39.237Z,4.32
2022-09-28T12:34:12.466Z,2.38
2022-09-28T12:36:06.028Z,4.47
2022-09-28T12:37:55.831Z,2.10
2022-09-28T12:39:57.146Z,1.50
2022-09-28T12:41:43.715Z,2.17
2022-09-28T12:43:34.220Z,1.60
2022-09-28T12:45:38.479Z,1.27
2022-09-28T12:47:33.866Z,2.65
2022-09-28T12:51:35.947Z,1.23
2022-09-28T12:53:28.310Z,1.15
2022-09-28T12:55:18.437Z,3.20
2022-09-28T12:57:02.743Z,2.45
2022-09-28T12:59:00.338Z,1.90
2022-09-28T13:00:42.397Z,3.75
2022-09-28T13:02:52.182Z,2.90
2022-09-28T13:04:47.565Z,3.47
2022-09-28T13:06:31.162Z,5.68
2022-09-28T13:08:11.109Z,3.40
2022-09-28T13:09:58.026Z,2.72
2022-09-28T13:11:38.117Z,2.78
2022-09-28T13:13:34.805Z,3.05
2022-09-28T13:15:27.901Z,1.08
2022-09-28T13:17:11.046Z,1.40
2022-09-28T13:18:52.656Z,2.25
2022-09-28T13:20:35.961Z,3.55
2022-09-28T13:22:23.544Z,3.67
2022-09-28T13:24:20.705Z,3.72
2022-09-28T13:25:58.556Z,2.15
2022-09-28T13:27:37.260Z,3.90
2022-09-28T13:29:14.692Z,4.68
2022-09-28T13:30:48.658Z,9.77
2022-09-28T13:32:24.502Z,1.65
2022-09-28T13:34:01.517Z,2.28
2022-09-28T13:35:35.179Z,2.40
2022-09-28T13:37:23.483Z,1.77
2022-09-28T13:38:59.631Z,5.78
2022-09-28T13:41:12.265Z,2.47
2022-09-28T13:43:06.805Z,1.70
2022-09-28T13:45:09.857Z,3.78
2022-09-28T13:46:51.023Z,2.45
2022-09-28T13:48:35.769Z,2.70
2022-09-28T13:50:23.481Z,2.72
2022-09-28T13:52:06.375Z,2.70
2022-09-28T13:54:01.219Z,1.20
2022-09-28T13:55:42.452Z,2.50
2022-09-28T13:57:25.317Z,2.90
2022-09-28T13:59:03.178Z,1.35
2022-09-28T14:00:45.747Z,1.88
2022-09-28T14:02:37.025Z,2.22
2022-09-28T14:04:17.856Z,2.42
2022-09-28T14:06:11.615Z,2.60
2022-09-28T14:07:59.909Z,7.05
2022-09-28T14:09:47.990Z,0.47
2022-09-28T14:12:01.047Z,3.75
2022-09-28T14:14:02.082Z,1.10
2022-09-28T14:15:45.119Z,2.63
2022-09-28T14:17:55.298Z,2.28
2022-09-28T14:19:32.832Z,2.30
2022-09-28T14:21:32.096Z,1.77
2022-09-28T14:23:32.478Z,5.38
2022-09-28T14:25:15.257Z,3.67
2022-09-28T14:27:12.679Z,2.45
2022-09-28T14:28:54.080Z,1.98
2022-09-28T14:30:34.147Z,5.85
2022-09-28T14:32:23.996Z,5.20
2022-09-28T14:33:59.419Z,3.42
2022-09-28T14:35:35.112Z,3.15
2022-09-28T14:37:40.529Z,1.60
2022-09-28T14:39:48.312Z,2.55
2022-09-28T14:41:31.578Z,4.35
2022-09-28T14:43:28.861Z,5.97
2022-09-28T14:45:35.032Z,4.03
2022-09-28T14:47:27.518Z,3.40
2022-09-28T14:49:03.719Z,5.20
2022-09-28T14:50:37.006Z,7.57
2022-09-28T14:52:14.039Z,3.60
2022-09-28T14:53:51.981Z,3.40
2022-09-28T14:55:32.275Z,4.68
2022-09-28T14:57:16.771Z,3.53
2022-09-28T14:58:55.416Z,3.20
2022-09-28T15:00:31.970Z,3.35
2022-09-28T15:02:09.874Z,8.02
2022-09-28T15:03:45.421Z,2.00
2022-09-28T15:05:24.159Z,4.85
2022-09-28T15:06:58.177Z,5.63
2022-09-28T15:08:39.776Z,4.88
2022-09-28T15:10:27.799Z,3.95
2022-09-28T15:12:02.054Z,7.07
2022-09-28T15:13:35.692Z,3.58
2022-09-28T15:15:21.379Z,5.82
2022-09-28T15:16:55.520Z,10.45
2022-09-28T15:19:18.805Z,8.63
2022-09-28T15:20:52.844Z,7.55
2022-09-28T15:22:25.379Z,7.57
2022-09-28T15:23:58.597Z,9.60
2022-09-28T15:25:35.439Z,13.10
2022-09-28T15:27:19.070Z,10.93
2022-09-28T15:28:52.780Z,8.15
2022-09-28T15:30:29.213Z,15.88
2022-09-28T15:32:03.054Z,11.55
2022-09-28T15:33:53.785Z,12.20
2022-09-28T15:35:28.926Z,18.90
2022-09-28T15:37:09.101Z,13.52
2022-09-28T15:38:43.262Z,15.18
2022-09-28T15:40:19.418Z,11.27
2022-09-28T15:41:54.408Z,21.95
2022-09-28T15:43:32.884Z,17.55
2022-09-28T15:45:27.096Z,27.40
2022-09-28T15:47:10.224Z,24.83
2022-09-28T15:48:51.764Z,15.88
2022-09-28T15:50:29.008Z,5.68
2022-09-28T15:52:03.107Z,10.27
2022-09-28T15:53:37.086Z,10.75
2022-09-28T15:55:22.056Z,14.35
2022-09-28T15:56:59.901Z,14.13
2022-09-28T15:58:33.185Z,14.82
2022-09-28T16:00:22.874Z,20.58
2022-09-28T16:02:08.399Z,18.67
2022-09-28T16:03:41.786Z,16.38
2022-09-28T16:05:35.851Z,17.55
2022-09-28T16:07:36.232Z,13.18
2022-09-28T16:09:37.656Z,13.45
2022-09-28T16:11:18.276Z,15.40
2022-09-28T16:12:58.859Z,5.78
2022-09-28T16:14:32.113Z,13.38
2022-09-28T16:16:05.558Z,6.25
2022-09-28T16:17:39.791Z,21.08
2022-09-28T16:19:24.775Z,8.93
2022-09-28T16:21:28.561Z,18.20
2022-09-28T16:23:09.120Z,16.25
2022-09-28T16:24:42.322Z,40.92
2022-09-28T16:26:29.891Z,26.83
2022-09-28T16:28:06.190Z,9.98
2022-09-28T16:29:41.531Z,9.35
2022-09-28T16:31:37.416Z,6.93
2022-09-28T16:33:30.673Z,10.43
2022-09-28T16:35:19.328Z,15.32
2022-09-28T16:36:52.659Z,12.43
2022-09-28T16:38:26.297Z,14.93
2022-09-28T16:39:59.441Z,7.47
2022-09-28T16:41:33.546Z,11.90
2022-09-28T16:43:10.203Z,8.57
2022-09-28T16:44:43.679Z,14.82
2022-09-28T16:46:20.750Z,14.07
2022-09-28T16:47:57.723Z,35.50
2022-09-28T16:49:32.613Z,38.45
2022-09-28T16:51:15.171Z,10.43
2022-09-28T16:53:08.680Z,7.30
2022-09-28T16:54:59.471Z,13.15
2022-09-28T16:56:45.608Z,17.17
2022-09-28T16:58:20.242Z,18.25
2022-09-28T16:59:54.128Z,25.92
2022-09-28T17:01:28.860Z,31.23
2022-09-28T17:03:02.428Z,36.40
2022-09-28T17:04:35.940Z,35.70
2022-09-28T17:06:14.057Z,13.20
2022-09-28T17:07:49.026Z,6.43
2022-09-28T17:09:23.311Z,5.57
2022-09-28T17:11:18.054Z,6.18
2022-09-28T17:12:52.864Z,6.65
2022-09-28T17:14:28.511Z,8.77
2022-09-28T17:16:04.456Z,10.93
2022-09-28T17:17:38.537Z,7.97
2022-09-28T17:19:19.687Z,6.78
2022-09-28T17:20:57.332Z,6.05
2022-09-28T17:22:30.483Z,6.75
2022-09-28T17:24:04.371Z,9.52
2022-09-28T17:25:41.609Z,10.65
2022-09-28T17:27:19.550Z,5.70
2022-09-28T17:28:53.169Z,6.22
2022-09-28T17:30:28.767Z,7.20
2022-09-28T17:32:02.364Z,6.18
2022-09-28T17:33:36.320Z,5.63
2022-09-28T17:35:24.037Z,10.45
2022-09-28T17:36:58.786Z,6.72
2022-09-28T17:38:32.286Z,9.38
2022-09-28T17:40:20.110Z,3.63
2022-09-28T17:41:53.375Z,5.88
2022-09-28T17:43:26.623Z,4.88
2022-09-28T17:45:00.063Z,6.13
2022-09-28T17:46:37.218Z,5.55
2022-09-28T17:48:15.807Z,7.97
2022-09-28T17:49:51.543Z,6.20
2022-09-28T17:51:25.008Z,5.40
2022-09-28T17:52:59.943Z,3.13
2022-09-28T17:54:33.989Z,6.60
2022-09-28T17:56:07.697Z,5.63
2022-09-28T17:57:46.026Z,6.97
2022-09-28T17:59:19.915Z,5.57
2022-09-28T18:00:53.388Z,6.53
2022-09-28T18:02:28.276Z,3.28
2022-09-28T18:04:04.847Z,7.45
2022-09-28T18:05:38.569Z,6.43
2022-09-28T18:07:11.757Z,2.70
2022-09-28T18:08:44.997Z,2.33
2022-09-28T18:10:21.542Z,11.02
2022-09-28T18:12:01.711Z,6.60
2022-09-28T18:13:35.394Z,3.97
2022-09-28T18:15:10.482Z,4.55
2022-09-28T18:16:43.026Z,8.45
2022-09-28T18:18:17.920Z,2.42
2022-09-28T18:19:51.451Z,7.20
2022-09-28T18:21:24.986Z,3.75
2022-09-28T18:22:58.526Z,2.30
2022-09-28T18:24:32.686Z,3.47
2022-09-28T18:26:11.599Z,2.58
2022-09-28T18:27:44.861Z,6.35
2022-09-28T18:29:18.836Z,5.15
2022-09-28T18:30:52.352Z,6.20
2022-09-28T18:32:25.717Z,2.38
2022-09-28T18:34:01.812Z,8.80
2022-09-28T18:35:35.675Z,4.22
2022-09-28T18:37:10.116Z,2.67
2022-09-28T18:38:43.614Z,6.00
2022-09-28T18:40:17.046Z,4.95
2022-09-28T18:41:50.509Z,7.97
2022-09-28T18:43:24.887Z,4.93
2022-09-28T18:44:57.967Z,3.42
2022-09-28T18:46:36.786Z,8.82
2022-09-28T18:48:09.948Z,7.15
2022-09-28T18:49:46.735Z,14.20
2022-09-28T18:51:20.709Z,13.85
2022-09-28T18:52:53.846Z,15.00
2022-09-28T18:54:27.305Z,14.80
2022-09-28T18:56:05.697Z,21.08
2022-09-28T18:57:40.439Z,20.33
2022-09-28T18:59:14.213Z,9.98
2022-09-28T19:00:50.883Z,11.68
2022-09-28T19:02:24.562Z,18.38
2022-09-28T19:03:59.948Z,11.85
2022-09-28T19:05:35.770Z,17.08
2022-09-28T19:07:09.926Z,16.75
2022-09-28T19:08:43.902Z,18.02
2022-09-28T19:10:17.421Z,22.25
2022-09-28T19:11:51.403Z,22.20
2022-09-28T19:13:24.719Z,25.45
2022-09-28T19:14:59.655Z,25.35
2022-09-28T19:16:33.801Z,23.63
2022-09-28T19:18:07.168Z,23.15
2022-09-28T19:19:41.513Z,23.15
2022-09-28T19:21:17.382Z,22.55
2022-09-28T19:22:51.713Z,19.20
2022-09-28T19:24:25.238Z,20.70
2022-09-28T19:25:58.730Z,16.05
2022-09-28T19:27:32.300Z,15.68
2022-09-28T19:29:05.580Z,12.48
2022-09-28T19:30:38.853Z,11.80
2022-09-28T19:32:12.718Z,15.05
2022-09-28T19:33:46.559Z,10.05
2022-09-28T19:35:20.498Z,9.38
2022-09-28T19:36:55.332Z,10.60
2022-09-28T19:38:29.689Z,4.88
2022-09-28T19:40:04.411Z,9.85
2022-09-28T19:41:45.812Z,6.32
2022-09-28T19:43:19.898Z,7.05
2022-09-28T19:44:53.308Z,6.20
2022-09-28T19:46:25.583Z,6.22
2022-09-28T19:48:01.755Z,7.13
2022-09-28T19:49:37.307Z,6.45
2022-09-28T19:51:11.055Z,8.60
2022-09-28T19:52:45.874Z,3.95
2022-09-28T19:54:21.662Z,10.25
2022-09-28T19:55:55.556Z,9.35
2022-09-28T19:57:31.038Z,7.57
2022-09-28T19:59:06.155Z,9.07
2022-09-28T20:00:39.721Z,10.63
2022-09-28T20:02:13.449Z,8.55
2022-09-28T20:03:47.279Z,6.35
2022-09-28T20:05:20.680Z,11.25
2022-09-28T20:06:53.858Z,7.20
2022-09-28T20:08:30.913Z,5.88
2022-09-28T20:10:07.082Z,7.57
2022-09-28T20:11:47.614Z,5.32
2022-09-28T20:13:21.272Z,9.63
2022-09-28T20:14:58.966Z,5.57
2022-09-28T20:16:32.497Z,10.98
2022-09-28T20:18:07.315Z,8.20
2022-09-28T20:19:40.422Z,4.07
2022-09-28T20:21:17.213Z,5.80
2022-09-28T20:22:59.500Z,4.47
2022-09-28T20:24:38.117Z,5.18
2022-09-28T20:26:12.105Z,3.78
2022-09-28T20:27:46.151Z,10.50
2022-09-28T20:29:19.494Z,5.68
2022-09-28T20:30:53.168Z,4.00
2022-09-28T20:32:26.595Z,6.45
2022-09-28T20:33:59.705Z,9.35
2022-09-28T20:35:35.262Z,3.90
2022-09-28T20:37:08.741Z,4.38
2022-09-28T20:38:42.460Z,4.65
2022-09-28T20:40:19.352Z,3.85
2022-09-28T20:41:52.581Z,11.15
2022-09-28T20:43:26.310Z,8.85
2022-09-28T20:44:59.563Z,9.15
2022-09-28T20:46:33.156Z,8.80
2022-09-28T20:48:07.848Z,7.25
2022-09-28T20:49:41.670Z,6.05
2022-09-28T20:51:16.237Z,7.45
2022-09-28T20:52:49.309Z,4.90
2022-09-28T20:54:26.557Z,4.10
2022-09-28T20:56:02.375Z,4.97
2022-09-28T20:59:28.911Z,9.00
2022-09-28T21:01:24.768Z,5.90
2022-09-28T21:02:58.035Z,5.07
2022-09-28T21:04:31.370Z,4.45
2022-09-28T21:06:11.422Z,4.47
2022-09-28T21:07:46.422Z,6.07
2022-09-28T21:09:19.803Z,3.78
2022-09-28T21:10:54.190Z,5.30
2022-09-28T21:12:30.491Z,5.68
2022-09-28T21:14:06.503Z,5.22
2022-09-28T21:15:39.690Z,4.32
2022-09-28T21:17:13.108Z,3.65
2022-09-28T21:18:47.185Z,6.82
2022-09-28T21:20:20.443Z,2.28
2022-09-28T21:21:53.549Z,4.90
2022-09-28T21:23:26.834Z,2.33
2022-09-28T21:24:59.974Z,4.45
2022-09-28T21:26:33.732Z,11.00
2022-09-28T21:28:08.349Z,10.32
2022-09-28T21:29:42.068Z,13.93
2022-09-28T21:31:16.207Z,5.75
2022-09-28T21:32:51.318Z,5.57
2022-09-28T21:34:25.358Z,10.82
2022-09-28T21:36:02.036Z,3.47
2022-09-28T21:37:35.542Z,6.75
2022-09-28T21:39:10.507Z,5.13
2022-09-28T21:40:44.570Z,6.55
2022-09-28T21:42:17.874Z,5.03
2022-09-28T21:43:53.453Z,5.32
2022-09-28T21:45:26.980Z,4.60
2022-09-28T21:47:00.072Z,4.88
2022-09-28T21:48:33.439Z,3.13
2022-09-28T21:50:07.629Z,15.48
2022-09-28T21:51:41.068Z,5.13
2022-09-28T21:53:14.208Z,6.45
2022-09-28T21:54:47.424Z,6.25
2022-09-28T21:56:20.968Z,10.10
2022-09-28T21:57:54.633Z,13.73
2022-09-28T21:59:29.325Z,4.28
2022-09-28T22:01:03.958Z,9.80
2022-09-28T22:02:39.362Z,28.42
2022-09-28T22:04:12.748Z,13.10
2022-09-28T22:05:46.197Z,14.48
2022-09-28T22:07:19.481Z,10.85
2022-09-28T22:08:52.620Z,9.52
2022-09-28T22:10:26.316Z,9.30